createdAt,value
2023-02-18T00:02:32.930Z,78.77
2023-02-18T00:07:36.611Z,77.99
2023-02-18T00:12:42.506Z,77.39
2023-02-18T00:17:44.140Z,76.56
2023-02-18T00:22:45.764Z,75.84
2023-02-18T00:27:47.465Z,74.89
2023-02-18T00:32:49.555Z,74.58
2023-02-18T00:37:53.155Z,73.27
2023-02-18T00:42:54.839Z,72.34
2023-02-18T00:47:56.739Z,72.99
2023-02-18T00:52:58.403Z,75.69
2023-02-18T00:58:00.104Z,77.91
2023-02-18T01:03:01.927Z,78.31
2023-02-18T01:08:05.073Z,78.57
2023-02-18T01:13:06.760Z,77.59
2023-02-18T01:18:09.632Z,76.53
2023-02-18T01:23:12.276Z,76.63
2023-02-18T01:28:15.030Z,75.28
2023-02-18T01:33:16.695Z,73.89
2023-02-18T01:38:18.387Z,73.62
2023-02-18T01:43:21.081Z,72.80
2023-02-18T01:48:47.840Z,72.34
2023-02-18T01:53:56.674Z,72.60
2023-02-18T01:59:01.568Z,72.56
2023-02-18T02:04:03.674Z,73.14
2023-02-18T02:09:10.648Z,73.34
2023-02-18T02:14:27.740Z,73.61
2023-02-18T02:19:42.418Z,74.65
2023-02-18T02:24:59.492Z,75.40
2023-02-18T02:30:27.571Z,75.99
2023-02-18T02:35:48.755Z,76.62
2023-02-18T02:41:19.198Z,77.85
2023-02-18T02:46:31.512Z,79.20
2023-02-18T02:51:47.138Z,79.29
2023-02-18T02:56:49.489Z,79.80
2023-02-18T03:02:02.986Z,79.53
2023-02-18T03:07:26.167Z,80.22
2023-02-18T03:12:46.636Z,80.63
2023-02-18T03:17:58.357Z,80.70
2023-02-18T03:23:04.456Z,80.97
2023-02-18T03:28:12.558Z,80.14
2023-02-18T03:33:20.708Z,78.81
2023-02-18T03:38:35.362Z,76.70
2023-02-18T03:43:37.072Z,74.40
2023-02-18T03:48:38.782Z,74.14
2023-02-18T03:53:40.685Z,72.48
2023-02-18T03:58:42.321Z,64.41
2023-02-18T04:03:44.044Z,64.67
2023-02-18T04:08:45.900Z,64.11
2023-02-18T04:13:47.555Z,63.83
2023-02-18T04:18:49.187Z,64.03
2023-02-18T04:23:50.861Z,64.13
2023-02-18T04:28:52.494Z,62.96
2023-02-18T04:33:54.192Z,60.56
2023-02-18T04:38:55.888Z,57.22
2023-02-18T04:43:59.642Z,57.13
2023-02-18T04:49:01.311Z,56.29
2023-02-18T04:54:03.939Z,55.95
2023-02-18T04:59:05.764Z,56.78
2023-02-18T05:04:07.495Z,57.70
2023-02-18T05:09:10.201Z,57.59
2023-02-18T05:14:11.909Z,56.86
2023-02-18T05:19:16.971Z,56.17
2023-02-18T05:24:18.665Z,57.03
2023-02-18T05:29:20.321Z,56.35
2023-02-18T05:34:22.044Z,57.20
2023-02-18T05:39:23.817Z,57.29
2023-02-18T05:44:31.378Z,57.25
2023-02-18T05:49:35.173Z,55.72
2023-02-18T05:54:37.702Z,57.07
2023-02-18T05:59:39.411Z,59.12
2023-02-18T06:04:41.502Z,58.18
2023-02-18T06:09:43.195Z,57.45
2023-02-18T06:14:45.210Z,55.57
2023-02-18T06:19:47.005Z,56.58
2023-02-18T06:24:48.640Z,56.69
2023-02-18T06:29:50.364Z,55.91
2023-02-18T06:34:52.012Z,55.01
2023-02-18T06:39:53.707Z,53.97
2023-02-18T06:44:55.316Z,53.76
2023-02-18T06:49:57.051Z,53.42
2023-02-18T06:54:58.975Z,52.36
2023-02-18T07:00:01.889Z,52.07
2023-02-18T07:05:03.864Z,52.37
2023-02-18T07:10:06.757Z,50.83
2023-02-18T07:15:09.061Z,51.16
2023-02-18T07:20:10.922Z,51.02
2023-02-18T07:25:13.096Z,50.97
2023-02-18T07:30:15.379Z,51.24
2023-02-18T07:35:17.502Z,51.42
2023-02-18T07:40:22.992Z,50.95
2023-02-18T07:45:25.111Z,51.19
2023-02-18T07:50:26.989Z,50.74
2023-02-18T07:55:58.649Z,51.26
2023-02-18T08:01:00.823Z,51.74
2023-02-18T08:06:04.557Z,52.03
2023-02-18T08:11:18.550Z,51.98
2023-02-18T08:16:21.894Z,52.72
2023-02-18T08:21:25.532Z,52.59
2023-02-18T08:26:27.666Z,52.50
2023-02-18T08:31:30.829Z,53.35
2023-02-18T08:36:32.575Z,52.71
2023-02-18T08:41:34.344Z,53.85
2023-02-18T08:46:36.548Z,54.16
2023-02-18T08:51:38.920Z,54.42
2023-02-18T08:56:40.763Z,55.47
2023-02-18T09:01:42.664Z,55.40
2023-02-18T09:06:44.393Z,55.39
2023-02-18T09:11:46.397Z,55.78
2023-02-18T09:16:48.065Z,56.21
2023-02-18T09:21:50.311Z,56.83
2023-02-18T09:26:52.015Z,57.52
2023-02-18T09:31:53.885Z,57.91
2023-02-18T09:36:55.656Z,58.68
2023-02-18T09:42:17.685Z,57.62
2023-02-18T09:47:30.890Z,55.78
2023-02-18T09:52:38.645Z,55.26
2023-02-18T09:57:45.116Z,52.77
2023-02-18T10:02:59.150Z,53.28
2023-02-18T10:08:07.846Z,53.41
2023-02-18T10:13:15.621Z,55.67
2023-02-18T10:23:42.376Z,60.79
2023-02-18T10:28:45.381Z,63.03
2023-02-18T10:33:55.476Z,65.42
2023-02-18T10:39:23.306Z,67.46
2023-02-18T10:44:43.999Z,69.58
2023-02-18T10:49:51.658Z,71.17
2023-02-18T10:55:04.578Z,72.13
2023-02-18T11:00:24.122Z,74.08
2023-02-18T11:05:28.051Z,74.65
2023-02-18T11:10:34.125Z,75.82
2023-02-18T11:15:36.753Z,76.37
2023-02-18T11:20:39.487Z,77.61
2023-02-18T11:25:52.580Z,77.75
2023-02-18T11:30:58.365Z,77.71
2023-02-18T11:36:13.345Z,77.48
2023-02-18T11:41:18.969Z,77.74
2023-02-18T11:46:24.664Z,77.92
2023-02-18T11:51:38.915Z,78.29
2023-02-18T11:56:40.690Z,78.54
2023-02-18T12:01:57.427Z,78.53
2023-02-18T12:07:05.500Z,78.56
2023-02-18T12:12:16.487Z,78.42
2023-02-18T12:17:33.479Z,78.33
2023-02-18T12:22:56.739Z,77.79
2023-02-18T12:28:21.460Z,77.21
2023-02-18T12:34:01.977Z,77.03
2023-02-18T12:39:11.393Z,76.86
2023-02-18T12:44:38.183Z,76.99
2023-02-18T12:50:12.863Z,77.05
2023-02-18T12:55:52.068Z,76.79
2023-02-18T13:00:56.542Z,76.55
2023-02-18T13:06:17.472Z,76.72
2023-02-18T13:11:39.660Z,77.01
2023-02-18T13:16:44.857Z,76.97
2023-02-18T13:21:49.909Z,76.91
2023-02-18T13:26:58.695Z,76.95
2023-02-18T13:32:33.449Z,77.18
2023-02-18T13:37:43.792Z,77.30
2023-02-18T13:42:45.662Z,77.59
2023-02-18T13:47:49.882Z,77.68
2023-02-18T13:52:52.654Z,77.29
2023-02-18T13:57:55.739Z,77.56
2023-02-18T14:03:00.391Z,78.14
2023-02-18T14:08:34.590Z,78.08
2023-02-18T14:13:40.834Z,78.48
2023-02-18T14:18:42.661Z,78.92
2023-02-18T14:23:59.613Z,78.72
2023-02-18T14:29:06.813Z,79.00
2023-02-18T14:34:14.690Z,79.33
2023-02-18T14:39:37.146Z,79.52
2023-02-18T14:44:52.845Z,79.93
2023-02-18T14:49:59.848Z,79.75
2023-02-18T14:55:04.022Z,79.94
2023-02-18T15:00:07.130Z,79.80
2023-02-18T15:05:16.495Z,80.48
2023-02-18T15:10:19.611Z,81.53
2023-02-18T15:15:26.465Z,82.42
2023-02-18T15:20:42.081Z,82.69
2023-02-18T15:25:50.340Z,83.63
2023-02-18T15:30:52.605Z,83.92
2023-02-18T15:36:06.384Z,84.20
2023-02-18T15:41:11.946Z,84.54
2023-02-18T15:46:14.561Z,85.15
2023-02-18T15:51:22.498Z,85.70
2023-02-18T15:56:34.066Z,86.72
2023-02-18T16:01:36.348Z,87.03
2023-02-18T16:06:46.156Z,87.22
2023-02-18T16:11:52.120Z,87.22
2023-02-18T16:16:59.657Z,86.90
2023-02-18T16:22:18.574Z,86.75
2023-02-18T16:27:20.580Z,86.35
2023-02-18T16:32:22.570Z,86.36
2023-02-18T16:37:39.520Z,86.36
2023-02-18T16:42:41.174Z,86.14
2023-02-18T16:47:47.324Z,86.00
2023-02-18T16:52:50.634Z,85.88
2023-02-18T16:57:52.822Z,86.08
2023-02-18T17:02:58.292Z,85.43
2023-02-18T17:08:14.437Z,84.85
2023-02-18T17:13:21.745Z,83.29
2023-02-18T17:18:24.403Z,81.61
2023-02-18T17:23:26.284Z,80.82
2023-02-18T17:28:27.994Z,80.64
2023-02-18T17:33:29.652Z,80.19
2023-02-18T17:38:34.519Z,79.78
2023-02-18T17:43:37.389Z,79.28
2023-02-18T17:48:40.259Z,78.97
2023-02-18T17:53:41.907Z,78.34
2023-02-18T17:58:43.973Z,77.98
2023-02-18T18:03:45.690Z,77.41
2023-02-18T18:08:48.263Z,76.67
2023-02-18T18:13:50.543Z,75.85
2023-02-18T18:18:52.624Z,75.53
2023-02-18T18:23:54.285Z,74.90
2023-02-18T18:28:56.021Z,74.27
2023-02-18T18:33:57.678Z,73.91
2023-02-18T18:38:59.279Z,73.30
2023-02-18T18:44:01.123Z,73.35
2023-02-18T18:49:02.775Z,72.63
2023-02-18T18:54:04.628Z,72.42
2023-02-18T18:59:08.472Z,72.14
2023-02-18T19:04:10.002Z,71.70
2023-02-18T19:09:11.781Z,72.12
2023-02-18T19:14:14.193Z,71.60
2023-02-18T19:19:16.189Z,71.32
2023-02-18T19:24:17.805Z,71.46
2023-02-18T19:29:23.252Z,72.29
2023-02-18T19:34:24.980Z,71.84
2023-02-18T19:39:26.825Z,71.43
2023-02-18T19:44:33.749Z,71.54
2023-02-18T19:49:35.459Z,70.99
2023-02-18T19:54:37.134Z,70.90
2023-02-18T19:59:39.713Z,71.30
2023-02-18T20:04:42.174Z,70.78
2023-02-18T20:09:44.497Z,70.68
2023-02-18T20:14:46.409Z,70.62
2023-02-18T20:19:48.357Z,70.74
2023-02-18T20:24:50.394Z,70.38
2023-02-18T20:29:52.172Z,70.58
2023-02-18T20:34:53.848Z,70.78
2023-02-18T20:39:55.520Z,70.61
2023-02-18T20:44:57.341Z,70.74
2023-02-18T20:49:59.147Z,70.90
2023-02-18T20:55:01.000Z,71.29
2023-02-18T21:00:04.386Z,72.80
2023-02-18T21:05:06.349Z,73.94
2023-02-18T21:10:08.355Z,76.35
2023-02-18T21:15:10.201Z,78.29
2023-02-18T21:20:11.874Z,82.24
2023-02-18T21:25:13.571Z,83.60
2023-02-18T21:30:15.329Z,85.43
2023-02-18T21:35:17.667Z,86.34
2023-02-18T21:40:19.553Z,86.89
2023-02-18T21:45:21.511Z,88.13
2023-02-18T21:50:23.437Z,88.02
2023-02-18T21:55:26.227Z,88.00
2023-02-18T22:00:28.036Z,87.92
2023-02-18T22:05:30.953Z,87.93
2023-02-18T22:10:33.567Z,87.94
2023-02-18T22:15:38.478Z,87.98
2023-02-18T22:20:40.915Z,87.83
2023-02-18T22:25:42.607Z,88.11
2023-02-18T22:30:44.314Z,87.99
2023-02-18T22:35:45.999Z,87.97
2023-02-18T22:40:50.447Z,88.29
2023-02-18T22:45:52.410Z,87.77
2023-02-18T22:50:54.278Z,88.00
2023-02-18T22:56:00.733Z,88.09
2023-02-18T23:01:03.571Z,87.83
2023-02-18T23:06:06.092Z,88.13
2023-02-18T23:11:12.182Z,87.77
2023-02-18T23:16:15.860Z,87.78
2023-02-18T23:21:17.576Z,87.72
2023-02-18T23:26:21.566Z,87.77
2023-02-18T23:31:25.911Z,87.99
2023-02-18T23:36:29.951Z,87.73
2023-02-18T23:41:32.074Z,87.47
2023-02-18T23:46:34.906Z,87.79
2023-02-18T23:51:36.653Z,87.89
2023-02-18T23:56:38.991Z,88.13
